createdAt,value
2022-08-10T00:00:57.063Z,0.00
2022-08-10T00:01:57.163Z,0.00
2022-08-10T00:02:57.122Z,0.00
2022-08-10T00:03:57.150Z,0.00
2022-08-10T00:04:57.180Z,0.00
2022-08-10T00:05:57.210Z,0.00
2022-08-10T00:06:57.242Z,0.00
2022-08-10T00:07:57.270Z,0.00
2022-08-10T00:08:57.311Z,0.00
2022-08-10T00:09:57.343Z,0.00
2022-08-10T00:10:57.363Z,0.00
2022-08-10T00:11:57.400Z,0.00
2022-08-10T00:12:57.583Z,0.00
2022-08-10T00:13:57.446Z,0.00
2022-08-10T00:14:57.479Z,0.00
2022-08-10T00:15:57.507Z,0.00
2022-08-10T00:16:57.538Z,0.00
2022-08-10T00:17:57.769Z,0.00
2022-08-10T00:18:57.597Z,0.00
2022-08-10T00:20:04.053Z,0.00
2022-08-10T00:20:57.658Z,0.00
2022-08-10T00:21:57.695Z,0.00
2022-08-10T00:22:58.202Z,0.00
2022-08-10T00:23:57.754Z,0.00
2022-08-10T00:24:57.791Z,0.00
2022-08-10T00:25:57.821Z,0.00
2022-08-10T00:27:52.855Z,0.00
2022-08-10T00:28:03.689Z,0.00
2022-08-10T00:28:58.109Z,0.00
2022-08-10T00:29:58.138Z,0.00
2022-08-10T00:31:59.492Z,0.00
2022-08-10T00:34:58.795Z,0.00
2022-08-10T00:35:58.317Z,0.00
2022-08-10T00:37:58.575Z,0.00
2022-08-10T00:39:59.792Z,0.00
2022-08-10T00:42:58.727Z,0.00
2022-08-10T00:43:58.347Z,0.00
2022-08-10T00:44:58.890Z,0.00
2022-08-10T00:46:00.285Z,0.00
2022-08-10T00:57:17.868Z,0.00
2022-08-10T01:08:59.071Z,0.00
2022-08-10T01:09:59.102Z,0.00
2022-08-10T01:10:59.146Z,0.00
2022-08-10T01:12:40.856Z,0.00
2022-08-10T01:12:59.202Z,0.00
2022-08-10T01:14:00.037Z,0.00
2022-08-10T01:14:59.248Z,0.00
2022-08-10T01:15:59.294Z,0.00
2022-08-10T01:16:59.321Z,0.00
2022-08-10T01:18:00.060Z,0.00
2022-08-10T01:18:59.579Z,0.00
2022-08-10T01:20:00.012Z,0.00
2022-08-10T01:21:00.149Z,0.00
2022-08-10T01:21:59.872Z,0.00
2022-08-10T01:58:03.932Z,0.00
2022-08-10T01:59:00.543Z,0.00
2022-08-10T02:00:02.710Z,0.00
2022-08-10T02:02:00.615Z,0.00
2022-08-10T02:03:00.648Z,0.00
2022-08-10T02:04:03.937Z,0.00
2022-08-10T02:05:00.700Z,0.00
2022-08-10T02:06:00.742Z,0.00
2022-08-10T02:07:00.960Z,0.00
2022-08-10T02:08:01.012Z,0.00
2022-08-10T02:09:06.039Z,0.00
2022-08-10T02:10:00.863Z,0.00
2022-08-10T02:11:00.888Z,0.00
2022-08-10T02:12:07.397Z,0.00
2022-08-10T02:16:02.674Z,0.00
2022-08-10T02:17:01.062Z,0.00
2022-08-10T02:18:02.040Z,0.00
2022-08-10T02:19:01.727Z,0.00
2022-08-10T02:20:01.145Z,0.00
2022-08-10T02:21:01.162Z,0.00
2022-08-10T02:23:01.231Z,0.00
2022-08-10T02:24:01.247Z,0.00
2022-08-10T02:25:02.500Z,0.00
2022-08-10T02:26:01.297Z,0.00
2022-08-10T02:27:01.328Z,0.00
2022-08-10T02:28:01.357Z,0.00
2022-08-10T02:29:01.384Z,0.00
2022-08-10T02:30:01.415Z,0.00
2022-08-10T02:31:01.445Z,0.00
2022-08-10T02:32:01.473Z,0.00
2022-08-10T02:33:01.501Z,0.00
2022-08-10T02:34:01.530Z,0.00
2022-08-10T02:35:01.561Z,0.00
2022-08-10T02:36:01.587Z,0.00
2022-08-10T02:37:01.614Z,0.00
2022-08-10T02:38:01.644Z,0.00
2022-08-10T02:39:01.675Z,0.00
2022-08-10T02:40:01.701Z,0.00
2022-08-10T02:45:02.153Z,0.00
2022-08-10T02:45:12.219Z,0.00
2022-08-10T02:45:22.576Z,0.00
2022-08-10T02:45:22.800Z,0.00
2022-08-10T02:45:27.037Z,0.00
2022-08-10T02:46:01.875Z,0.00
2022-08-10T02:47:01.904Z,0.00
2022-08-10T02:48:01.933Z,0.00
2022-08-10T02:49:01.961Z,0.00
2022-08-10T02:50:01.992Z,0.00
2022-08-10T02:51:02.016Z,0.00
2022-08-10T02:52:06.355Z,0.00
2022-08-10T02:53:02.075Z,0.00
2022-08-10T02:54:02.106Z,0.00
2022-08-10T02:55:06.193Z,0.00
2022-08-10T02:56:02.163Z,0.00
2022-08-10T02:57:02.191Z,0.00
2022-08-10T02:58:15.344Z,0.00
2022-08-10T02:59:02.252Z,0.00
2022-08-10T03:00:02.278Z,0.00
2022-08-10T03:01:02.330Z,0.00
2022-08-10T03:02:02.349Z,0.00
2022-08-10T03:03:02.365Z,0.00
2022-08-10T03:04:02.394Z,0.00
2022-08-10T03:05:02.422Z,0.00
2022-08-10T03:06:02.454Z,0.00
2022-08-10T03:07:02.481Z,0.00
2022-08-10T03:08:02.515Z,0.00
2022-08-10T03:09:02.538Z,0.00
2022-08-10T03:10:02.570Z,0.00
2022-08-10T03:11:02.598Z,0.00
2022-08-10T03:12:35.261Z,0.00
2022-08-10T03:13:02.656Z,0.00
2022-08-10T03:14:02.683Z,0.00
2022-08-10T03:15:02.716Z,0.00
2022-08-10T03:16:02.741Z,0.00
2022-08-10T03:17:02.769Z,0.00
2022-08-10T03:18:02.800Z,0.00
2022-08-10T03:19:02.829Z,0.00
2022-08-10T03:21:45.435Z,0.00
2022-08-10T03:22:45.464Z,0.00
2022-08-10T03:23:45.493Z,0.00
2022-08-10T03:24:45.521Z,0.00
2022-08-10T03:25:54.322Z,0.00
2022-08-10T03:26:45.579Z,0.00
2022-08-10T03:27:45.608Z,0.00
2022-08-10T03:28:45.635Z,0.00
2022-08-10T03:30:28.133Z,0.00
2022-08-10T03:31:45.730Z,4.00
2022-08-10T03:33:45.774Z,0.00
2022-08-10T03:34:48.419Z,4.00
2022-08-10T03:36:40.660Z,0.00
2022-08-10T03:40:22.549Z,8.00
2022-08-10T04:33:24.854Z,1176.00
2022-08-10T05:08:39.921Z,3280.00
2022-08-10T05:10:02.996Z,3260.00
2022-08-10T05:10:39.979Z,3240.00
2022-08-10T05:11:40.009Z,3232.00
2022-08-10T05:12:40.505Z,3244.00
2022-08-10T05:13:40.066Z,3232.00
2022-08-10T05:14:40.095Z,3220.00
2022-08-10T05:15:40.124Z,3232.00
2022-08-10T05:16:40.151Z,3308.00
2022-08-10T05:18:40.207Z,3324.00
2022-08-10T05:20:01.836Z,3360.00
2022-08-10T05:20:40.266Z,3404.00
2022-08-10T05:21:52.047Z,3468.00
2022-08-10T05:22:40.844Z,3572.00
2022-08-10T05:23:40.552Z,3684.00
2022-08-10T05:24:40.384Z,3692.00
2022-08-10T05:25:40.410Z,3780.00
2022-08-10T05:27:00.466Z,3884.00
2022-08-10T05:27:40.466Z,3996.00
2022-08-10T05:28:40.498Z,4120.00
2022-08-10T05:29:40.526Z,4248.00
2022-08-10T05:30:40.557Z,4300.00
2022-08-10T05:31:40.583Z,4388.00
2022-08-10T05:32:56.037Z,4432.00
2022-08-10T05:33:40.645Z,4380.00
2022-08-10T05:34:40.674Z,4272.00
2022-08-10T05:35:56.823Z,4176.00
2022-08-10T05:36:40.730Z,4100.00
2022-08-10T05:38:11.880Z,4152.00
2022-08-10T05:38:40.790Z,4268.00
2022-08-10T05:39:40.852Z,5580.00
2022-08-10T05:40:40.850Z,7528.00
2022-08-10T05:41:45.354Z,6212.00
2022-08-10T05:42:40.906Z,4848.00
2022-08-10T05:43:40.934Z,5188.00
2022-08-10T05:44:40.965Z,5344.00
2022-08-10T05:46:16.811Z,5536.00
2022-08-10T05:46:41.029Z,5824.00
2022-08-10T05:48:56.085Z,5736.00
2022-08-10T05:48:59.513Z,7052.00
2022-08-10T05:49:41.112Z,8884.00
2022-08-10T05:50:41.144Z,6880.00
2022-08-10T05:51:41.171Z,5896.00
2022-08-10T05:52:41.202Z,5836.00
2022-08-10T05:54:01.700Z,6048.00
2022-08-10T05:54:41.262Z,6364.00
2022-08-10T05:55:41.289Z,6584.00
2022-08-10T05:56:54.259Z,6604.00
2022-08-10T06:00:33.349Z,6036.00
2022-08-10T06:00:49.947Z,6412.00
2022-08-10T06:02:33.866Z,9536.00
2022-08-10T06:03:29.111Z,8884.00
2022-08-10T06:04:29.088Z,11128.00
2022-08-10T06:05:29.126Z,15624.00
2022-08-10T06:06:29.148Z,22592.00
2022-08-10T06:07:29.239Z,40832.00
2022-08-10T06:08:29.208Z,41728.00
2022-08-10T06:09:29.241Z,32928.00
2022-08-10T06:10:32.253Z,28416.00
2022-08-10T06:12:27.764Z,25984.00
2022-08-10T06:12:37.584Z,44352.00
2022-08-10T06:13:34.487Z,65600.00
2022-08-10T06:14:29.395Z,65088.00
2022-08-10T06:15:52.136Z,70528.00
2022-08-10T06:16:29.460Z,66816.00
2022-08-10T06:17:29.491Z,79328.00
2022-08-10T06:19:12.077Z,75360.00
2022-08-10T06:20:12.109Z,76864.00
2022-08-10T06:21:12.541Z,71840.00
2022-08-10T06:23:23.016Z,72992.00
2022-08-10T06:24:19.817Z,67136.00
2022-08-10T06:26:08.233Z,77184.00
2022-08-10T06:27:02.436Z,80864.00
2022-08-10T06:28:02.471Z,78592.00
2022-08-10T06:30:52.679Z,81472.00
2022-08-10T06:34:19.237Z,83744.00
2022-08-10T06:35:13.009Z,81760.00
2022-08-10T06:36:13.040Z,72864.00
2022-08-10T06:37:13.471Z,73600.00
2022-08-10T06:38:14.517Z,77536.00
2022-08-10T06:39:32.466Z,80960.00
2022-08-10T06:40:55.731Z,81408.00
2022-08-10T06:41:57.675Z,79424.00
2022-08-10T06:42:55.812Z,78592.00
2022-08-10T06:43:55.842Z,77728.00
2022-08-10T06:44:55.879Z,80288.00
2022-08-10T06:46:07.233Z,84672.00
2022-08-10T06:46:58.641Z,83520.00
2022-08-10T06:47:55.990Z,81408.00
2022-08-10T06:48:56.030Z,82400.00
2022-08-10T06:53:56.224Z,78240.00
2022-08-10T06:54:56.261Z,76480.00
2022-08-10T06:55:57.146Z,74144.00
2022-08-10T06:57:17.217Z,73216.00
2022-08-10T06:57:59.602Z,76352.00
2022-08-10T06:58:56.420Z,79616.00
2022-08-10T06:59:56.460Z,78464.00
2022-08-10T07:00:56.667Z,82336.00
2022-08-10T07:01:56.541Z,87712.00
2022-08-10T07:02:56.588Z,86208.00
2022-08-10T07:03:56.634Z,82656.00
2022-08-10T07:04:56.659Z,79552.00
2022-08-10T07:05:57.304Z,80800.00
2022-08-10T07:06:56.750Z,78400.00
2022-08-10T07:07:57.384Z,80032.00
2022-08-10T07:08:56.830Z,80096.00
2022-08-10T07:09:56.859Z,82400.00
2022-08-10T07:10:56.900Z,85728.00
2022-08-10T07:11:56.939Z,86944.00
2022-08-10T07:12:56.994Z,86624.00
2022-08-10T07:14:14.218Z,86048.00
2022-08-10T07:14:57.061Z,84512.00
2022-08-10T07:15:59.946Z,81536.00
2022-08-10T07:16:57.143Z,81600.00
2022-08-10T07:17:57.187Z,82144.00
2022-08-10T07:18:57.227Z,80480.00
2022-08-10T07:19:57.268Z,81152.00
2022-08-10T07:20:57.306Z,82432.00
2022-08-10T07:21:58.091Z,85312.00
2022-08-10T07:23:04.841Z,85888.00
2022-08-10T07:24:00.513Z,86240.00
2022-08-10T07:24:57.473Z,82848.00
2022-08-10T07:25:57.530Z,82208.00
2022-08-10T07:26:57.767Z,84320.00
2022-08-10T07:28:00.108Z,84992.00
2022-08-10T07:29:01.066Z,83616.00
2022-08-10T07:29:57.698Z,83968.00
2022-08-10T07:30:57.718Z,84480.00
2022-08-10T07:31:58.015Z,78816.00
2022-08-10T07:32:57.799Z,75232.00
2022-08-10T07:33:57.841Z,76672.00
2022-08-10T07:34:57.881Z,79616.00
2022-08-10T07:35:57.926Z,78208.00
2022-08-10T07:36:57.965Z,73600.00
2022-08-10T07:37:58.007Z,80448.00
2022-08-10T07:38:58.247Z,81504.00
2022-08-10T07:40:03.735Z,83680.00
2022-08-10T07:40:58.129Z,81696.00
2022-08-10T07:41:58.173Z,78752.00
2022-08-10T07:42:58.223Z,78944.00
2022-08-10T07:45:58.351Z,77312.00
2022-08-10T07:46:58.378Z,76320.00
2022-08-10T07:48:00.603Z,75200.00
2022-08-10T07:48:58.460Z,76192.00
2022-08-10T07:49:58.506Z,76000.00
2022-08-10T07:50:58.545Z,81824.00
2022-08-10T07:51:58.803Z,82272.00
2022-08-10T07:52:58.640Z,78752.00
2022-08-10T07:53:58.689Z,77472.00
2022-08-10T07:54:58.926Z,77408.00
2022-08-10T07:56:04.107Z,79424.00
2022-08-10T07:56:58.811Z,79040.00
2022-08-10T08:00:24.273Z,75328.00
2022-08-10T08:01:24.280Z,74720.00
2022-08-10T08:02:24.356Z,74496.00
2022-08-10T08:05:57.219Z,76544.00
2022-08-10T08:07:24.368Z,75968.00
2022-08-10T08:08:24.407Z,72928.00
2022-08-10T08:09:24.451Z,72896.00
2022-08-10T08:10:24.493Z,72672.00
2022-08-10T08:11:26.377Z,73120.00
2022-08-10T08:12:25.395Z,74176.00
2022-08-10T08:16:17.836Z,72192.00
2022-08-10T08:17:25.003Z,75552.00
2022-08-10T08:24:30.565Z,73056.00
2022-08-10T08:24:31.356Z,72320.00
2022-08-10T08:26:25.389Z,72000.00
2022-08-10T09:31:22.397Z,16288.00
2022-08-10T09:36:13.859Z,15880.00
2022-08-10T09:36:19.624Z,15856.00
2022-08-10T09:41:13.776Z,14384.00
2022-08-10T09:54:13.588Z,16416.00
2022-08-10T09:56:18.079Z,19840.00
2022-08-10T09:57:44.856Z,21792.00
2022-08-10T10:02:02.611Z,26592.00
2022-08-10T10:02:50.775Z,21792.00
2022-08-10T10:04:47.547Z,17920.00
2022-08-10T10:10:57.614Z,12692.00
2022-08-10T10:11:24.453Z,11960.00
2022-08-10T10:12:24.697Z,11584.00
2022-08-10T10:15:10.362Z,10724.00
2022-08-10T10:15:37.187Z,10500.00
2022-08-10T10:16:37.229Z,10492.00
2022-08-10T10:17:37.447Z,10344.00
2022-08-10T10:18:37.309Z,10172.00
2022-08-10T10:19:40.727Z,10016.00
2022-08-10T10:20:37.393Z,9936.00
2022-08-10T10:22:37.465Z,9744.00
2022-08-10T10:23:37.495Z,9704.00
2022-08-10T10:26:48.439Z,9344.00
2022-08-10T10:27:16.367Z,9220.00
2022-08-10T10:28:15.304Z,9128.00
2022-08-10T10:29:55.536Z,9108.00
2022-08-10T10:30:15.384Z,9072.00
2022-08-10T10:31:16.739Z,8908.00
2022-08-10T10:32:15.459Z,8832.00
2022-08-10T10:33:15.500Z,8724.00
2022-08-10T10:34:15.536Z,8588.00
2022-08-10T10:35:15.577Z,8468.00
2022-08-10T10:37:15.652Z,8324.00
2022-08-10T10:38:15.687Z,8296.00
2022-08-10T10:39:17.607Z,8204.00
2022-08-10T10:40:15.766Z,8164.00
2022-08-10T10:41:15.804Z,8128.00
2022-08-10T10:42:34.974Z,8196.00
2022-08-10T10:43:19.311Z,8224.00
2022-08-10T10:44:18.745Z,8060.00
2022-08-10T10:45:50.496Z,7824.00
2022-08-10T10:46:15.992Z,7808.00
2022-08-10T10:47:16.033Z,7804.00
2022-08-10T10:48:23.917Z,7712.00
2022-08-10T10:49:16.102Z,7648.00
2022-08-10T10:50:16.142Z,7700.00
2022-08-10T10:51:16.179Z,7664.00
2022-08-10T10:52:16.220Z,7516.00
2022-08-10T10:53:16.270Z,7396.00
2022-08-10T10:54:16.303Z,7368.00
2022-08-10T10:55:16.340Z,7260.00
2022-08-10T10:56:16.568Z,7228.00
2022-08-10T10:57:16.408Z,7288.00
2022-08-10T10:58:20.329Z,7424.00
2022-08-10T10:59:56.264Z,7360.00
2022-08-10T11:00:16.528Z,7204.00
2022-08-10T11:01:16.647Z,7268.00
2022-08-10T11:02:16.598Z,7284.00
2022-08-10T11:03:16.635Z,7256.00
2022-08-10T11:04:16.681Z,7096.00
2022-08-10T11:05:16.723Z,6844.00
2022-08-10T11:06:16.752Z,7036.00
2022-08-10T11:07:17.004Z,7260.00
2022-08-10T11:08:16.829Z,7088.00
2022-08-10T11:10:06.068Z,6836.00
2022-08-10T11:10:32.958Z,6812.00
2022-08-10T11:11:27.038Z,7144.00
2022-08-10T11:12:16.976Z,7440.00
2022-08-10T11:14:26.143Z,7272.00
2022-08-10T11:14:26.844Z,7680.00
2022-08-10T11:15:17.133Z,6424.00
2022-08-10T11:21:18.131Z,5836.00
2022-08-10T11:24:44.465Z,5816.00
2022-08-10T11:25:17.457Z,5812.00
2022-08-10T11:26:17.490Z,5804.00
2022-08-10T11:27:22.287Z,5796.00
2022-08-10T11:28:17.566Z,5792.00
2022-08-10T11:29:17.605Z,5756.00
2022-08-10T11:30:17.637Z,5736.00
2022-08-10T11:32:35.317Z,5740.00
2022-08-10T11:34:47.829Z,5728.00
2022-08-10T11:35:37.998Z,5704.00
2022-08-10T11:36:38.035Z,5628.00
2022-08-10T11:38:37.029Z,5500.00
2022-08-10T11:38:52.234Z,5332.00
2022-08-10T11:39:38.234Z,5072.00
2022-08-10T11:42:28.727Z,4740.00
2022-08-10T11:43:15.903Z,4732.00
2022-08-10T11:44:15.936Z,4708.00
2022-08-10T11:45:15.974Z,4704.00
2022-08-10T11:46:27.613Z,4704.00
2022-08-10T11:47:16.049Z,4680.00
2022-08-10T11:48:54.259Z,4688.00
2022-08-10T11:49:16.114Z,4688.00
2022-08-10T11:50:16.149Z,4684.00
2022-08-10T11:51:16.198Z,4676.00
2022-08-10T11:54:16.289Z,4616.00
2022-08-10T11:55:16.324Z,4608.00
2022-08-10T11:56:16.359Z,4592.00
2022-08-10T11:57:16.884Z,4604.00
2022-08-10T12:00:16.510Z,4608.00
2022-08-10T12:05:54.542Z,4520.00
2022-08-10T12:06:54.085Z,4516.00
2022-08-10T12:10:02.677Z,4516.00
2022-08-10T12:10:09.588Z,4520.00
2022-08-10T12:10:10.716Z,4524.00
2022-08-10T12:10:29.451Z,4508.00
2022-08-10T12:11:32.101Z,4504.00
2022-08-10T12:12:29.515Z,4500.00
2022-08-10T12:13:29.866Z,4484.00
2022-08-10T12:14:29.584Z,4488.00
2022-08-10T12:15:29.631Z,4480.00
2022-08-10T12:16:32.678Z,4472.00
2022-08-10T12:17:29.689Z,4456.00
2022-08-10T12:18:29.723Z,4444.00
2022-08-10T12:19:29.767Z,4428.00
2022-08-10T12:20:29.820Z,4388.00
2022-08-10T12:21:29.839Z,4384.00
2022-08-10T12:22:30.064Z,4372.00
2022-08-10T12:23:29.895Z,4384.00
2022-08-10T12:24:29.946Z,4376.00
2022-08-10T12:26:47.607Z,4360.00
2022-08-10T12:27:47.643Z,4356.00
2022-08-10T12:28:50.402Z,4340.00
2022-08-10T12:29:47.715Z,4340.00
2022-08-10T12:30:47.753Z,4344.00
2022-08-10T12:31:47.782Z,4324.00
2022-08-10T12:32:47.832Z,4340.00
2022-08-10T12:58:57.201Z,4216.00
2022-08-10T12:59:43.311Z,4200.00
2022-08-10T13:00:48.922Z,4176.00
2022-08-10T13:02:10.683Z,4184.00
2022-08-10T13:02:37.534Z,4168.00
2022-08-10T13:04:23.518Z,4148.00
2022-08-10T13:04:37.437Z,4128.00
2022-08-10T13:06:00.355Z,4112.00
2022-08-10T13:06:37.507Z,4100.00
2022-08-10T13:08:04.102Z,4048.00
2022-08-10T13:08:37.579Z,4100.00
2022-08-10T13:09:56.459Z,4108.00
2022-08-10T13:10:37.643Z,4108.00
2022-08-10T13:12:36.796Z,4128.00
2022-08-10T13:12:40.329Z,4100.00
2022-08-10T13:13:37.746Z,4084.00
2022-08-10T13:14:37.781Z,4096.00
2022-08-10T13:15:49.538Z,4084.00
2022-08-10T13:16:37.852Z,4084.00
2022-08-10T13:17:39.513Z,4100.00
2022-08-10T13:18:37.925Z,4100.00
2022-08-10T13:19:38.725Z,4100.00
2022-08-10T13:20:37.989Z,4092.00
2022-08-10T13:21:38.025Z,4084.00
2022-08-10T13:22:38.057Z,4072.00
2022-08-10T13:23:38.091Z,4044.00
2022-08-10T13:24:38.136Z,4032.00
2022-08-10T13:25:38.162Z,4052.00
2022-08-10T13:26:38.214Z,4000.00
2022-08-10T13:27:59.768Z,3984.00
2022-08-10T13:28:39.846Z,4020.00
2022-08-10T13:29:38.324Z,4004.00
2022-08-10T13:30:38.458Z,4008.00
2022-08-10T13:32:03.642Z,4004.00
2022-08-10T13:32:38.527Z,3996.00
2022-08-10T13:34:40.733Z,4016.00
2022-08-10T13:34:43.336Z,4028.00
2022-08-10T13:35:38.511Z,4008.00
2022-08-10T13:36:38.546Z,4008.00
2022-08-10T13:37:38.577Z,4012.00
2022-08-10T13:38:38.610Z,4008.00
2022-08-10T13:39:57.846Z,4012.00
2022-08-10T13:40:38.679Z,4012.00
2022-08-10T13:41:38.715Z,4000.00
2022-08-10T13:42:38.762Z,3980.00
2022-08-10T13:43:38.783Z,3992.00
2022-08-10T13:44:38.816Z,3968.00
2022-08-10T13:45:38.854Z,3956.00
2022-08-10T13:46:38.886Z,3948.00
2022-08-10T13:47:48.733Z,3936.00
2022-08-10T13:48:38.974Z,3924.00
2022-08-10T13:49:38.991Z,3916.00
2022-08-10T13:50:39.025Z,3908.00
2022-08-10T13:51:57.649Z,3900.00
2022-08-10T13:52:39.095Z,3888.00
2022-08-10T13:53:39.139Z,3868.00
2022-08-10T13:54:39.162Z,3876.00
2022-08-10T13:55:54.589Z,3876.00
2022-08-10T13:56:39.236Z,3860.00
2022-08-10T13:57:47.427Z,3864.00
2022-08-10T13:58:39.306Z,3860.00
2022-08-10T14:00:35.153Z,3864.00
2022-08-10T14:00:39.507Z,3852.00
2022-08-10T14:01:39.485Z,3864.00
2022-08-10T14:02:39.441Z,3864.00
2022-08-10T14:03:39.480Z,3840.00
2022-08-10T14:04:39.510Z,3820.00
2022-08-10T14:05:39.544Z,3848.00
2022-08-10T14:06:39.578Z,3852.00
2022-08-10T14:07:39.613Z,3820.00
2022-08-10T14:08:39.648Z,3808.00
2022-08-10T14:09:39.698Z,3800.00
2022-08-10T14:11:09.018Z,3796.00
2022-08-10T14:13:40.751Z,3760.00
2022-08-10T14:15:39.889Z,3816.00
2022-08-10T14:16:39.921Z,3788.00
2022-08-10T14:17:44.533Z,3760.00
2022-08-10T14:18:39.991Z,3768.00
2022-08-10T14:19:43.506Z,3744.00
2022-08-10T14:20:40.063Z,3744.00
2022-08-10T14:21:40.096Z,3744.00
2022-08-10T14:22:40.129Z,3740.00
2022-08-10T14:23:40.164Z,3732.00
2022-08-10T14:24:40.198Z,3732.00
2022-08-10T14:25:40.233Z,3732.00
2022-08-10T14:26:40.266Z,3732.00
2022-08-10T14:28:03.502Z,3728.00
2022-08-10T14:28:40.331Z,3716.00
2022-08-10T14:29:40.372Z,3716.00
2022-08-10T14:30:40.401Z,3716.00
2022-08-10T14:31:40.446Z,3724.00
2022-08-10T14:32:40.470Z,3724.00
2022-08-10T14:33:40.505Z,3708.00
2022-08-10T14:36:16.914Z,3696.00
2022-08-10T14:36:20.169Z,3700.00
2022-08-10T14:36:40.608Z,3692.00
2022-08-10T14:37:40.808Z,3676.00
2022-08-10T14:38:40.677Z,3692.00
2022-08-10T14:39:40.786Z,3692.00
2022-08-10T14:40:40.750Z,3684.00
2022-08-10T14:42:01.329Z,3700.00
2022-08-10T14:42:40.816Z,3664.00
2022-08-10T14:43:40.855Z,3668.00
2022-08-10T14:44:40.884Z,3672.00
2022-08-10T14:45:40.919Z,3656.00
2022-08-10T14:46:40.957Z,3648.00
2022-08-10T14:47:53.023Z,3672.00
2022-08-10T14:48:41.024Z,3668.00
2022-08-10T14:49:57.965Z,3656.00
2022-08-10T14:50:55.312Z,3640.00
2022-08-10T14:51:44.689Z,3640.00
2022-08-10T14:52:44.297Z,3660.00
2022-08-10T14:53:41.194Z,3668.00
2022-08-10T14:54:41.228Z,3640.00
2022-08-10T14:55:57.656Z,3628.00
2022-08-10T14:56:41.296Z,3616.00
2022-08-10T14:58:19.466Z,3608.00
2022-08-10T14:59:05.839Z,3580.00
2022-08-10T15:00:25.133Z,3576.00
2022-08-10T15:00:43.174Z,3560.00
2022-08-10T15:02:37.687Z,3544.00
2022-08-10T15:02:55.856Z,3548.00
2022-08-10T15:04:00.837Z,3544.00
2022-08-10T15:04:41.572Z,3528.00
2022-08-10T15:05:41.795Z,3524.00
2022-08-10T15:06:41.851Z,3500.00
2022-08-10T15:07:41.680Z,3508.00
2022-08-10T15:08:41.711Z,3512.00
2022-08-10T15:10:01.017Z,3508.00
2022-08-10T15:10:41.781Z,3508.00
2022-08-10T15:12:13.696Z,3504.00
2022-08-10T15:12:41.850Z,3480.00
2022-08-10T15:13:41.883Z,3468.00
2022-08-10T15:14:44.738Z,3456.00
2022-08-10T15:16:11.005Z,3456.00
2022-08-10T15:16:41.988Z,3464.00
2022-08-10T15:17:42.345Z,3448.00
2022-08-10T15:18:42.055Z,3444.00
2022-08-10T15:20:04.747Z,3444.00
2022-08-10T15:20:42.126Z,3440.00
2022-08-10T15:21:42.774Z,3432.00
2022-08-10T15:22:42.194Z,3436.00
2022-08-10T15:24:04.706Z,3428.00
2022-08-10T15:24:42.264Z,3428.00
2022-08-10T15:25:42.296Z,3420.00
2022-08-10T15:26:51.283Z,3404.00
2022-08-10T15:27:53.548Z,3404.00
2022-08-10T15:29:24.241Z,3400.00
2022-08-10T15:29:57.851Z,3392.00
2022-08-10T15:30:42.478Z,3392.00
2022-08-10T15:31:45.638Z,3392.00
2022-08-10T15:32:42.539Z,3380.00
2022-08-10T15:34:01.908Z,3364.00
2022-08-10T15:34:42.707Z,3340.00
2022-08-10T15:35:42.645Z,3328.00
2022-08-10T15:36:42.676Z,3324.00
2022-08-10T15:37:42.712Z,3320.00
2022-08-10T15:38:44.584Z,3304.00
2022-08-10T15:40:22.368Z,3296.00
2022-08-10T15:40:50.789Z,3276.00
2022-08-10T15:41:57.567Z,3252.00
2022-08-10T15:42:49.245Z,3248.00
2022-08-10T15:43:44.711Z,3256.00
2022-08-10T15:44:43.236Z,3248.00
2022-08-10T15:45:42.988Z,3240.00
2022-08-10T15:46:43.020Z,3232.00
2022-08-10T15:47:45.957Z,3216.00
2022-08-10T16:19:51.731Z,2956.00
2022-08-10T16:21:34.319Z,2908.00
2022-08-10T16:22:36.265Z,2864.00
2022-08-10T16:23:34.388Z,2792.00
2022-08-10T16:24:34.417Z,2680.00
2022-08-10T16:25:48.456Z,2704.00
2022-08-10T16:27:42.099Z,2632.00
2022-08-10T16:28:42.128Z,2548.00
2022-08-10T16:29:55.732Z,2556.00
2022-08-10T16:30:42.192Z,2500.00
2022-08-10T16:31:42.229Z,2608.00
2022-08-10T16:32:42.272Z,2676.00
2022-08-10T16:33:53.869Z,2672.00
2022-08-10T16:34:42.330Z,2736.00
2022-08-10T16:35:44.775Z,2756.00
2022-08-10T16:36:42.396Z,2812.00
2022-08-10T16:37:59.005Z,2840.00
2022-08-10T16:38:42.464Z,2844.00
2022-08-10T16:39:58.078Z,2840.00
2022-08-10T16:40:42.566Z,2828.00
2022-08-10T16:42:03.487Z,2816.00
2022-08-10T16:42:45.012Z,2800.00
2022-08-10T16:43:42.631Z,2776.00
2022-08-10T16:44:42.667Z,2760.00
2022-08-10T16:45:42.701Z,2740.00
2022-08-10T16:46:42.733Z,2724.00
2022-08-10T16:47:42.832Z,2696.00
2022-08-10T16:48:50.063Z,2672.00
2022-08-10T16:49:42.835Z,2652.00
2022-08-10T16:50:42.868Z,2636.00
2022-08-10T16:51:42.902Z,2616.00
2022-08-10T16:52:42.937Z,2600.00
2022-08-10T16:53:42.973Z,2580.00
2022-08-10T16:54:43.020Z,2560.00
2022-08-10T16:55:48.006Z,2552.00
2022-08-10T16:56:47.670Z,2536.00
2022-08-10T16:57:43.107Z,2516.00
2022-08-10T16:58:43.160Z,2504.00
2022-08-10T16:59:43.172Z,2484.00
2022-08-10T17:00:43.355Z,2472.00
2022-08-10T17:01:43.285Z,2464.00
2022-08-10T17:02:43.287Z,2460.00
2022-08-10T17:04:08.683Z,2432.00
2022-08-10T17:04:43.340Z,2420.00
2022-08-10T17:06:01.720Z,2400.00
2022-08-10T17:06:43.413Z,2388.00
2022-08-10T17:07:43.442Z,2368.00
2022-08-10T17:08:48.041Z,2300.00
2022-08-10T17:09:43.511Z,2324.00
2022-08-10T17:10:43.541Z,2340.00
2022-08-10T17:11:43.576Z,2332.00
2022-08-10T17:12:43.611Z,2324.00
2022-08-10T17:13:43.642Z,2320.00
2022-08-10T17:14:44.166Z,2308.00
2022-08-10T17:15:43.713Z,2296.00
2022-08-10T17:16:43.746Z,2284.00
2022-08-10T17:17:43.778Z,2272.00
2022-08-10T17:18:46.740Z,2256.00
2022-08-10T17:19:43.843Z,2240.00
2022-08-10T17:20:43.878Z,2220.00
2022-08-10T17:21:51.510Z,2200.00
2022-08-10T17:22:43.945Z,2180.00
2022-08-10T17:23:43.979Z,2172.00
2022-08-10T17:24:44.013Z,2144.00
2022-08-10T17:25:46.417Z,2124.00
2022-08-10T17:26:44.078Z,2104.00
2022-08-10T17:28:04.975Z,2088.00
2022-08-10T17:28:44.146Z,2072.00
2022-08-10T17:29:57.848Z,2048.00
2022-08-10T17:30:57.513Z,2024.00
2022-08-10T17:31:54.730Z,1964.00
2022-08-10T17:32:45.154Z,1972.00
2022-08-10T17:33:44.310Z,1936.00
2022-08-10T17:34:44.344Z,1888.00
2022-08-10T17:35:44.376Z,1836.00
2022-08-10T17:36:44.412Z,1796.00
2022-08-10T17:37:44.450Z,1788.00
2022-08-10T17:38:44.477Z,1772.00
2022-08-10T17:39:44.667Z,1768.00
2022-08-10T17:40:44.593Z,1768.00
2022-08-10T17:41:44.575Z,1788.00
2022-08-10T17:42:44.608Z,1780.00
2022-08-10T17:44:01.028Z,1768.00
2022-08-10T17:44:44.674Z,1772.00
2022-08-10T17:45:47.791Z,1748.00
2022-08-10T17:46:44.741Z,1752.00
2022-08-10T17:47:44.771Z,1732.00
2022-08-10T17:48:44.810Z,1704.00
2022-08-10T17:49:44.835Z,1676.00
2022-08-10T17:50:44.871Z,1684.00
2022-08-10T17:51:44.901Z,1668.00
2022-08-10T17:52:44.936Z,1636.00
2022-08-10T17:53:44.968Z,1604.00
2022-08-10T17:54:45.002Z,1532.00
2022-08-10T17:55:45.042Z,1500.00
2022-08-10T17:57:33.550Z,1540.00
2022-08-10T17:58:33.541Z,1532.00
2022-08-10T17:59:33.572Z,1524.00
2022-08-10T18:00:33.604Z,1504.00
2022-08-10T18:01:40.274Z,1476.00
2022-08-10T18:02:33.715Z,1460.00
2022-08-10T18:03:35.116Z,1436.00
2022-08-10T18:04:41.460Z,1404.00
2022-08-10T18:05:33.763Z,1380.00
2022-08-10T18:06:33.798Z,1352.00
2022-08-10T18:07:33.826Z,1328.00
2022-08-10T18:08:33.863Z,1308.00
2022-08-10T18:09:33.893Z,1284.00
2022-08-10T18:10:33.927Z,1272.00
2022-08-10T18:11:33.958Z,1268.00
2022-08-10T18:12:38.942Z,1252.00
2022-08-10T18:13:56.376Z,1232.00
2022-08-10T18:14:34.058Z,1216.00
2022-08-10T18:15:36.712Z,1196.00
2022-08-10T18:16:34.178Z,1176.00
2022-08-10T18:17:38.499Z,1156.00
2022-08-10T18:18:34.188Z,1136.00
2022-08-10T18:19:34.318Z,1116.00
2022-08-10T18:20:34.250Z,1092.00
2022-08-10T18:21:34.285Z,1072.00
2022-08-10T18:22:34.321Z,1056.00
2022-08-10T18:23:34.348Z,1036.00
2022-08-10T18:24:34.381Z,1016.00
2022-08-10T18:25:34.618Z,996.00
2022-08-10T18:26:34.460Z,976.00
2022-08-10T18:28:01.489Z,960.00
2022-08-10T18:28:34.514Z,944.00
2022-08-10T18:29:34.543Z,924.00